Time;durP1;ratioP1;P1;durP2;ratioP2;P2;SDS_P1;SDS_P2;PMS_P1;PMS_P2;Temp;Humidity;BMP_temperature;BMP_pressure;BME280_temperature;BME280_humidity;BME280_pressure;Samples;Min_cycle;Max_cycle;Signal;HPM_P1;HPM_P2
2022/02/10 05:22:13;;;;;;;7.47;6.77;;;4.00;99.90;;;;;;4996298;28;20467;-65
2022/02/10 05:31:20;;;;;;;9.17;6.50;;;4.10;99.90;;;;;;4996163;28;20524;-66
2022/02/10 05:33:31;;;;;;;9.57;6.43;;;4.10;99.90;;;;;;4958613;28;20454;-65
2022/02/10 05:36:05;;;;;;;8.30;6.40;;;4.20;99.90;;;;;;4995595;28;20460;-66
2022/02/10 05:38:35;;;;;;;7.70;6.63;;;4.20;99.90;;;;;;4995923;28;20448;-66
2022/02/10 05:43:55;;;;;;;7.27;5.90;;;4.20;99.90;;;;;;4996223;28;20417;-65
2022/02/10 05:46:43;;;;;;;6.83;6.07;;;4.30;99.90;;;;;;4996122;28;20512;-66
2022/02/10 05:54:55;;;;;;;7.20;6.03;;;4.40;99.90;;;;;;5000028;28;20774;-65
2022/02/10 05:57:40;;;;;;;7.33;5.33;;;4.40;99.90;;;;;;4998235;28;20468;-65
2022/02/10 06:38:18;;;;;;;8.43;5.50;;;4.30;99.90;;;;;;4995204;28;20425;-65
2022/02/10 06:48:04;;;;;;;11.60;6.20;;;4.30;99.90;;;;;;4996482;28;20455;-65
2022/02/10 06:53:29;;;;;;;12.90;6.50;;;4.30;99.90;;;;;;4990941;28;20451;-65
2022/02/10 07:04:49;;;;;;;8.43;6.90;;;4.20;99.90;;;;;;4998080;28;20417;-65
2022/02/10 07:10:20;;;;;;;9.87;6.47;;;4.30;99.90;;;;;;4998310;28;20900;-64
2022/02/10 07:13:18;;;;;;;8.67;6.13;;;4.30;99.90;;;;;;4998145;28;20444;-65
2022/02/10 07:54:17;;;;;;;7.50;5.50;;;10.90;99.90;;;;;;4997304;28;20781;-65
2022/02/10 07:56:59;;;;;;;12.67;5.20;;;12.10;99.90;;;;;;4998018;28;20525;-65
2022/02/10 08:55:19;;;;;;;6.13;5.57;;;19.10;66.80;;;;;;4976321;28;20453;-66
2022/02/10 08:58:18;;;;;;;8.83;5.70;;;19.30;67.20;;;;;;4998085;28;20442;-67
2022/02/10 09:03:38;;;;;;;5.00;4.50;;;20.30;63.10;;;;;;4998300;28;20904;-67
2022/02/10 09:06:13;;;;;;;6.40;4.20;;;21.60;63.00;;;;;;4996442;28;20497;-66
2022/02/10 09:56:08;;;;;;;6.77;4.50;;;23.00;55.70;;;;;;4995931;28;20429;-66
2022/02/10 10:01:24;;;;;;;6.80;5.17;;;20.60;56.40;;;;;;4995492;28;20969;-65
2022/02/10 10:04:05;;;;;;;6.30;4.50;;;20.40;58.50;;;;;;4995777;28;20529;-65
2022/02/10 10:06:53;;;;;;;6.40;4.70;;;20.20;59.60;;;;;;4995362;28;20548;-65
2022/02/10 10:12:43;;;;;;;5.37;4.77;;;19.00;63.40;;;;;;4995482;28;20489;-66
2022/02/10 10:18:19;;;;;;;8.40;6.30;;;18.00;64.10;;;;;;4982656;28;20442;-66
2022/02/10 10:21:14;;;;;;;6.80;5.00;;;17.60;67.80;;;;;;4996086;28;20485;-66
2022/02/10 10:23:57;;;;;;;9.43;6.00;;;17.60;67.20;;;;;;4995853;28;20442;-66
2022/02/10 10:26:55;;;;;;;8.97;5.80;;;17.30;69.80;;;;;;4995755;28;20469;-66
2022/02/10 10:49:44;;;;;;;5.97;4.87;;;13.90;83.50;;;;;;4995449;28;20465;-66
2022/02/10 10:52:25;;;;;;;7.37;5.27;;;13.80;87.60;;;;;;4995839;28;20474;-65
2022/02/10 10:55:07;;;;;;;6.53;5.50;;;13.70;88.50;;;;;;4996243;28;20437;-66
2022/02/10 10:57:39;;;;;;;5.80;5.30;;;13.30;89.70;;;;;;4995622;28;20437;-65
2022/02/10 11:00:28;;;;;;;11.67;6.10;;;13.20;90.90;;;;;;4995467;28;20529;-65
2022/02/10 11:36:50;;;;;;;8.10;6.03;;;13.40;96.40;;;;;;4999837;28;20775;-65
2022/02/10 11:39:33;;;;;;;13.10;6.70;;;13.30;96.50;;;;;;4998727;28;20898;-66
2022/02/10 12:30:01;;;;;;;9.00;7.60;;;12.20;99.90;;;;;;4998113;28;20442;-65
2022/02/10 13:23:24;;;;;;;9.43;6.93;;;11.10;99.90;;;;;;5008891;28;20572;-66
2022/02/10 14:10:38;;;;;;;11.07;7.67;;;9.40;99.90;;;;;;5003502;28;20417;-65
2022/02/10 14:13:16;;;;;;;10.27;7.53;;;9.40;99.90;;;;;;5004816;28;20438;-67
2022/02/10 14:18:32;;;;;;;11.17;8.53;;;9.20;99.90;;;;;;4987393;28;20541;-66
2022/02/10 14:21:14;;;;;;;10.00;7.50;;;9.20;99.90;;;;;;4997229;28;20835;-65
2022/02/10 14:26:34;;;;;;;10.53;8.00;;;9.10;99.90;;;;;;4997874;28;20458;-65
2022/02/10 14:29:02;;;;;;;9.50;7.43;;;9.20;99.90;;;;;;4996965;28;20446;-66
2022/02/10 14:31:29;;;;;;;10.77;7.90;;;9.20;99.90;;;;;;4996568;28;20478;-66
2022/02/10 14:33:57;;;;;;;8.73;7.83;;;9.20;99.90;;;;;;4996457;28;20458;-66
2022/02/10 14:36:30;;;;;;;8.17;7.43;;;9.10;99.90;;;;;;4996673;28;20553;-65
2022/02/10 14:39:13;;;;;;;9.13;7.30;;;9.10;99.90;;;;;;4997050;28;20568;-66
2022/02/10 16:18:45;;;;;;;7.90;7.10;;;9.10;99.90;;;;;;4956610;28;20978;-65
2022/02/10 16:21:15;;;;;;;7.53;6.50;;;9.40;99.90;;;;;;4956533;28;20869;-66
2022/02/10 16:23:44;;;;;;;7.73;7.03;;;9.60;99.90;;;;;;4975325;28;20937;-65
2022/02/10 16:26:15;;;;;;;6.70;5.93;;;9.60;99.90;;;;;;4998080;28;20449;-67
2022/02/10 16:28:44;;;;;;;8.03;6.13;;;9.60;99.90;;;;;;4998227;28;20554;-66
2022/02/10 16:31:11;;;;;;;9.23;6.40;;;9.50;99.90;;;;;;4997575;28;20570;-67
2022/02/10 16:33:42;;;;;;;8.60;6.13;;;9.50;99.90;;;;;;4997645;28;20453;-66
2022/02/10 16:36:16;;;;;;;8.77;6.00;;;9.40;99.90;;;;;;4997755;28;20481;-64
2022/02/10 16:38:45;;;;;;;4.93;4.53;;;9.30;99.90;;;;;;5000389;28;20521;-65
2022/02/10 16:41:12;;;;;;;5.20;4.70;;;9.20;99.90;;;;;;4997683;28;21015;-67
2022/02/10 16:43:39;;;;;;;5.77;4.87;;;9.10;99.90;;;;;;5006582;28;20461;-64
2022/02/10 16:46:09;;;;;;;5.33;3.90;;;9.10;99.90;;;;;;5001715;28;20528;-65
2022/02/10 16:48:36;;;;;;;5.10;4.20;;;9.10;99.90;;;;;;4997348;28;20477;-65
2022/02/10 16:51:07;;;;;;;4.67;4.27;;;8.90;99.90;;;;;;4997479;28;20573;-65
2022/02/10 16:53:34;;;;;;;4.70;3.80;;;8.90;99.90;;;;;;4997568;28;20537;-66
2022/02/10 16:56:07;;;;;;;3.97;3.57;;;8.80;99.90;;;;;;4997614;28;20459;-66
2022/02/10 16:58:39;;;;;;;3.90;3.57;;;8.70;99.90;;;;;;5009195;28;20448;-66
2022/02/10 17:18:26;;;;;;;4.40;4.00;;;8.90;99.90;;;;;;5003792;28;20437;-65
2022/02/10 17:21:13;;;;;;;5.80;4.30;;;8.90;99.90;;;;;;4998168;28;20513;-64
2022/02/10 17:26:39;;;;;;;4.80;4.33;;;8.90;99.90;;;;;;4997048;28;20426;-64
2022/02/10 17:29:14;;;;;;;6.17;4.37;;;8.90;99.90;;;;;;4996460;28;20842;-65
2022/02/10 17:31:54;;;;;;;4.97;4.50;;;8.90;99.90;;;;;;4995734;28;20531;-65
2022/02/10 17:34:38;;;;;;;4.90;4.37;;;9.00;99.90;;;;;;4996597;28;20438;-64
2022/02/10 17:37:16;;;;;;;6.37;4.37;;;8.90;99.90;;;;;;4997868;28;20474;-64
2022/02/10 17:45:37;;;;;;;6.17;5.00;;;8.90;99.90;;;;;;4980119;28;20441;-66
2022/02/10 17:53:38;;;;;;;6.63;5.57;;;8.80;99.90;;;;;;4996549;28;20901;-66
2022/02/10 17:56:06;;;;;;;6.50;5.30;;;8.80;99.90;;;;;;4996153;28;20470;-66
2022/02/10 17:58:32;;;;;;;5.93;5.00;;;8.80;99.90;;;;;;4996107;28;20450;-65
2022/02/10 18:01:01;;;;;;;5.87;5.37;;;8.90;99.90;;;;;;4995613;28;20482;-66
2022/02/10 18:03:28;;;;;;;6.70;5.37;;;8.90;99.90;;;;;;4995917;28;20458;-65
2022/02/10 18:08:41;;;;;;;4.63;4.23;;;8.90;99.90;;;;;;4993558;28;20839;-65
2022/02/10 18:11:43;;;;;;;5.87;4.70;;;8.80;99.90;;;;;;4995667;28;20565;-66
2022/02/10 18:14:12;;;;;;;6.13;4.90;;;8.80;99.90;;;;;;4996311;28;20992;-66
2022/02/10 18:16:45;;;;;;;5.13;4.47;;;8.80;99.90;;;;;;4999723;28;20528;-65
2022/02/10 18:19:18;;;;;;;5.57;5.03;;;8.70;99.90;;;;;;4997591;28;20443;-66
2022/02/10 18:22:19;;;;;;;8.00;4.57;;;8.60;99.90;;;;;;4994881;28;20477;-65
2022/02/10 18:24:55;;;;;;;8.83;4.87;;;8.60;99.90;;;;;;4995119;28;20540;-65
2022/02/10 18:27:32;;;;;;;6.13;5.20;;;8.60;99.90;;;;;;4996941;28;20864;-66
2022/02/10 19:06:09;;;;;;;4.13;3.57;;;7.90;99.90;;;;;;4999313;28;20456;-65
2022/02/10 19:08:58;;;;;;;5.13;4.40;;;7.90;99.90;;;;;;4999161;28;20466;-65
2022/02/10 19:11:25;;;;;;;4.60;4.07;;;7.90;99.90;;;;;;4999334;28;20557;-65
2022/02/10 19:13:55;;;;;;;3.97;3.67;;;7.90;99.90;;;;;;4999195;28;20461;-65
2022/02/10 19:16:23;;;;;;;4.00;3.70;;;7.90;99.90;;;;;;4999690;28;20446;-65
2022/02/10 19:18:50;;;;;;;6.20;4.63;;;7.90;99.90;;;;;;4999352;28;20465;-65
2022/02/10 19:21:18;;;;;;;4.80;4.00;;;7.90;99.90;;;;;;5000107;28;20482;-65
2022/02/10 19:23:45;;;;;;;4.53;3.73;;;7.80;99.90;;;;;;4999505;28;20461;-65
2022/02/10 19:26:13;;;;;;;4.23;3.53;;;7.80;99.90;;;;;;4999133;28;20458;-65
2022/02/10 19:28:40;;;;;;;6.37;4.13;;;7.80;99.90;;;;;;5003977;28;20513;-66
2022/02/10 19:31:08;;;;;;;4.60;3.90;;;7.80;99.90;;;;;;5005183;28;20809;-66
2022/02/10 19:33:35;;;;;;;4.00;3.70;;;7.80;99.90;;;;;;5003355;28;20457;-65
2022/02/10 19:36:02;;;;;;;6.23;4.53;;;7.80;99.90;;;;;;5003094;28;20487;-64
2022/02/10 19:38:31;;;;;;;4.83;4.20;;;7.80;99.90;;;;;;4999434;28;21001;-66
2022/02/10 19:40:58;;;;;;;5.17;4.67;;;7.70;99.90;;;;;;4999768;28;20473;-64
2022/02/10 19:43:26;;;;;;;6.87;4.70;;;7.70;99.90;;;;;;4998933;28;20477;-66
2022/02/10 19:45:53;;;;;;;5.47;4.40;;;7.70;99.90;;;;;;4999231;28;20458;-65
2022/02/10 19:48:22;;;;;;;4.80;4.40;;;7.60;99.90;;;;;;5008973;28;20474;-65
2022/02/10 19:50:50;;;;;;;7.43;4.47;;;7.50;99.90;;;;;;5011164;28;20825;-64
2022/02/10 19:53:18;;;;;;;5.07;4.20;;;7.50;99.90;;;;;;5002692;28;20540;-64
2022/02/10 19:55:49;;;;;;;5.63;4.30;;;7.60;99.90;;;;;;4997192;28;20500;-65
2022/02/10 19:58:20;;;;;;;4.80;4.23;;;7.60;99.90;;;;;;4997931;28;20434;-65
2022/02/10 20:00:48;;;;;;;4.27;3.90;;;7.70;99.90;;;;;;4998139;28;20490;-66
2022/02/10 20:03:17;;;;;;;5.83;3.93;;;7.70;99.90;;;;;;4998102;28;20452;-65
2022/02/10 20:05:45;;;;;;;8.60;4.77;;;7.70;99.90;;;;;;4997772;28;20447;-64
2022/02/10 20:08:14;;;;;;;5.30;4.80;;;7.70;99.90;;;;;;4997803;28;20481;-65
2022/02/10 20:10:42;;;;;;;4.57;4.17;;;7.60;99.90;;;;;;4997844;28;20477;-65
2022/02/10 20:13:15;;;;;;;5.60;4.00;;;7.70;99.90;;;;;;4997773;28;20461;-65
2022/02/10 20:15:42;;;;;;;4.90;4.50;;;7.70;99.90;;;;;;5003136;28;20465;-65
2022/02/10 20:18:12;;;;;;;4.80;4.20;;;7.80;99.90;;;;;;5003659;28;20446;-65
2022/02/10 20:20:39;;;;;;;5.17;4.70;;;7.80;99.90;;;;;;4998590;28;20956;-65
2022/02/10 20:23:05;;;;;;;5.87;4.10;;;7.80;99.90;;;;;;4997910;28;20984;-66
2022/02/10 20:25:32;;;;;;;4.20;3.70;;;7.80;99.90;;;;;;4997769;28;20462;-66
2022/02/10 20:27:59;;;;;;;8.37;4.47;;;7.80;99.90;;;;;;4997375;28;20481;-65
2022/02/10 20:30:27;;;;;;;7.00;4.30;;;7.90;99.90;;;;;;4997255;28;20445;-65
2022/02/10 20:32:54;;;;;;;5.83;3.90;;;7.90;99.90;;;;;;4997101;28;20468;-65
2022/02/10 20:35:21;;;;;;;4.77;4.33;;;7.90;99.90;;;;;;4997192;28;20941;-65
2022/02/10 20:37:48;;;;;;;4.80;4.10;;;8.00;99.90;;;;;;4996713;28;20453;-65
2022/02/10 20:40:14;;;;;;;5.73;4.63;;;8.00;99.90;;;;;;4996895;28;20460;-66
2022/02/10 20:42:41;;;;;;;5.60;4.70;;;8.10;99.90;;;;;;4996622;28;20481;-65
2022/02/10 20:45:08;;;;;;;4.87;4.33;;;8.10;99.90;;;;;;4997317;28;20497;-66
2022/02/10 20:47:36;;;;;;;4.60;4.20;;;8.10;99.90;;;;;;4996870;28;20454;-65
2022/02/10 20:50:04;;;;;;;5.07;4.67;;;8.10;99.90;;;;;;4996378;28;20822;-64
2022/02/10 20:52:32;;;;;;;5.70;5.20;;;8.10;99.90;;;;;;4996764;28;20481;-65
2022/02/10 20:54:59;;;;;;;5.80;4.50;;;8.20;99.90;;;;;;4996636;28;20489;-65
2022/02/10 20:57:26;;;;;;;5.03;4.37;;;8.20;99.90;;;;;;4996788;28;20458;-65
2022/02/10 20:59:54;;;;;;;5.77;4.67;;;8.20;99.90;;;;;;4996490;28;20801;-65
2022/02/10 21:02:29;;;;;;;5.20;4.50;;;8.20;99.90;;;;;;4996181;28;20474;-65
2022/02/10 21:05:02;;;;;;;4.93;3.60;;;8.20;99.90;;;;;;4996204;28;20438;-65
2022/02/10 21:07:35;;;;;;;4.53;4.13;;;8.20;99.90;;;;;;4996124;28;20533;-65
2022/02/10 21:10:04;;;;;;;4.80;3.87;;;8.20;99.90;;;;;;4996179;28;20439;-65
2022/02/10 21:12:35;;;;;;;5.47;4.53;;;8.20;99.90;;;;;;4996286;28;20477;-65
2022/02/10 21:15:04;;;;;;;5.10;4.63;;;8.20;99.90;;;;;;4996765;28;20445;-65
2022/02/10 21:17:31;;;;;;;5.23;4.83;;;8.20;99.90;;;;;;5004492;28;20485;-65
2022/02/10 21:20:02;;;;;;;4.67;4.23;;;8.30;99.90;;;;;;5003579;28;20449;-65
2022/02/10 21:22:32;;;;;;;12.23;5.10;;;8.30;99.90;;;;;;5006477;28;20505;-65
2022/02/10 21:25:06;;;;;;;5.97;4.67;;;8.40;99.90;;;;;;5009646;28;20952;-65
2022/02/10 21:27:40;;;;;;;5.60;5.10;;;8.40;99.90;;;;;;4996574;28;20473;-65
2022/02/10 21:30:08;;;;;;;7.87;5.97;;;8.40;99.90;;;;;;4996920;28;20840;-65
2022/02/10 21:32:42;;;;;;;5.33;4.83;;;8.40;99.90;;;;;;4997284;28;20505;-65
2022/02/10 21:35:22;;;;;;;6.20;4.83;;;8.40;99.90;;;;;;4999043;28;20525;-66
2022/02/10 21:37:54;;;;;;;5.13;4.70;;;8.40;99.90;;;;;;4998832;28;20496;-65
2022/02/10 21:57:07;;;;;;;5.57;4.83;;;8.40;99.90;;;;;;4998090;28;20450;-65
2022/02/10 21:59:49;;;;;;;5.07;4.60;;;8.40;99.90;;;;;;4998332;28;20465;-66
2022/02/10 22:16:29;;;;;;;5.23;4.73;;;8.50;99.90;;;;;;5100810;28;20422;-65
2022/02/10 22:19:01;;;;;;;6.70;5.57;;;8.50;99.90;;;;;;5100245;28;20450;-65
2022/02/10 22:21:31;;;;;;;5.87;5.33;;;8.50;99.90;;;;;;5097902;28;20478;-66
2022/02/10 22:24:00;;;;;;;6.23;5.13;;;8.50;99.90;;;;;;5098164;28;20468;-65
2022/02/10 22:26:30;;;;;;;7.07;5.53;;;8.60;99.90;;;;;;5098000;28;20446;-65
2022/02/10 22:29:02;;;;;;;5.27;4.77;;;8.60;99.90;;;;;;5099375;28;20438;-65
2022/02/10 22:31:42;;;;;;;5.17;4.73;;;8.50;99.90;;;;;;5097986;28;20975;-66
2022/02/10 22:34:21;;;;;;;6.40;4.50;;;8.50;99.90;;;;;;5098256;28;20503;-65
2022/02/10 22:36:55;;;;;;;5.10;4.60;;;8.50;99.90;;;;;;5097540;28;20434;-65
2022/02/10 22:39:22;;;;;;;12.17;5.10;;;8.60;99.90;;;;;;5096901;28;20459;-65
2022/02/10 22:41:48;;;;;;;6.70;4.43;;;8.50;99.90;;;;;;5097181;28;20809;-65
2022/02/10 22:44:16;;;;;;;5.13;4.73;;;8.50;99.90;;;;;;5096540;28;20801;-66
2022/02/10 22:46:43;;;;;;;7.10;4.50;;;8.50;99.90;;;;;;5096479;28;20441;-66
2022/02/10 22:49:09;;;;;;;8.07;6.10;;;8.50;99.90;;;;;;5096781;28;20979;-66
2022/02/10 22:51:37;;;;;;;5.40;4.90;;;8.50;99.90;;;;;;5096773;28;20473;-66
2022/02/10 22:54:05;;;;;;;5.73;5.23;;;8.50;99.90;;;;;;5109952;28;20516;-66
2022/02/10 22:56:33;;;;;;;5.70;5.30;;;8.40;99.90;;;;;;5107588;28;20507;-66
2022/02/10 22:59:01;;;;;;;5.00;4.60;;;8.40;99.90;;;;;;5095331;28;20492;-66
